sensor_id;sensor_type;location;lat;lon;timestamp;temperature;humidity
15455;DHT22;21057;51.024;7.540;2022-10-17T00:01:06;15.80;99.90
15455;DHT22;21057;51.024;7.540;2022-10-17T00:03:34;15.80;99.90
15455;DHT22;21057;51.024;7.540;2022-10-17T00:06:05;15.90;99.90
15455;DHT22;21057;51.024;7.540;2022-10-17T00:08:32;15.90;99.90
15455;DHT22;21057;51.024;7.540;2022-10-17T00:11:03;15.80;99.90
15455;DHT22;21057;51.024;7.540;2022-10-17T00:13:31;15.80;99.90
15455;DHT22;21057;51.024;7.540;2022-10-17T00:15:59;16.00;99.90
15455;DHT22;21057;51.024;7.540;2022-10-17T00:18:26;16.00;99.90
15455;DHT22;21057;51.024;7.540;2022-10-17T00:20:53;16.00;99.90
15455;DHT22;21057;51.024;7.540;2022-10-17T00:23:20;16.20;99.90
15455;DHT22;21057;51.024;7.540;2022-10-17T00:25:47;16.20;99.90
15455;DHT22;21057;51.024;7.540;2022-10-17T00:28:24;16.20;99.90
15455;DHT22;21057;51.024;7.540;2022-10-17T00:30:54;16.20;99.90
15455;DHT22;21057;51.024;7.540;2022-10-17T00:33:21;16.30;99.90
15455;DHT22;21057;51.024;7.540;2022-10-17T00:35:48;16.20;99.90
15455;DHT22;21057;51.024;7.540;2022-10-17T00:38:15;16.20;99.90
15455;DHT22;21057;51.024;7.540;2022-10-17T00:40:42;16.20;99.90
15455;DHT22;21057;51.024;7.540;2022-10-17T00:43:14;16.20;99.90
15455;DHT22;21057;51.024;7.540;2022-10-17T00:45:43;16.20;99.90
15455;DHT22;21057;51.024;7.540;2022-10-17T00:48:10;16.20;99.90
15455;DHT22;21057;51.024;7.540;2022-10-17T00:50:39;16.10;99.90
15455;DHT22;21057;51.024;7.540;2022-10-17T00:53:07;16.20;99.90
15455;DHT22;21057;51.024;7.540;2022-10-17T00:55:37;16.20;99.90
15455;DHT22;21057;51.024;7.540;2022-10-17T00:58:05;16.30;99.90
15455;DHT22;21057;51.024;7.540;2022-10-17T01:00:32;16.40;99.90
15455;DHT22;21057;51.024;7.540;2022-10-17T01:03:01;16.40;99.90
15455;DHT22;21057;51.024;7.540;2022-10-17T01:05:28;16.30;99.90
15455;DHT22;21057;51.024;7.540;2022-10-17T01:07:55;16.40;99.90
15455;DHT22;21057;51.024;7.540;2022-10-17T01:10:24;16.40;99.90
15455;DHT22;21057;51.024;7.540;2022-10-17T01:12:59;16.50;99.90
15455;DHT22;21057;51.024;7.540;2022-10-17T01:15:38;16.50;99.90
15455;DHT22;21057;51.024;7.540;2022-10-17T01:18:14;16.50;99.90
15455;DHT22;21057;51.024;7.540;2022-10-17T01:21:01;16.50;99.90
15455;DHT22;21057;51.024;7.540;2022-10-17T01:26:47;16.50;99.90
15455;DHT22;21057;51.024;7.540;2022-10-17T01:29:49;16.40;99.90
15455;DHT22;21057;51.024;7.540;2022-10-17T01:32:24;16.40;99.90
15455;DHT22;21057;51.024;7.540;2022-10-17T01:34:56;16.30;99.90
15455;DHT22;21057;51.024;7.540;2022-10-17T01:37:27;16.30;99.90
15455;DHT22;21057;51.024;7.540;2022-10-17T01:40:00;16.30;99.90
15455;DHT22;21057;51.024;7.540;2022-10-17T01:42:33;16.30;99.90
15455;DHT22;21057;51.024;7.540;2022-10-17T01:45:04;16.30;99.90
15455;DHT22;21057;51.024;7.540;2022-10-17T01:47:35;16.20;99.90
15455;DHT22;21057;51.024;7.540;2022-10-17T01:50:06;16.20;99.90
15455;DHT22;21057;51.024;7.540;2022-10-17T01:52:39;16.20;99.90
15455;DHT22;21057;51.024;7.540;2022-10-17T01:55:10;16.20;99.90
15455;DHT22;21057;51.024;7.540;2022-10-17T01:57:40;16.20;99.90
15455;DHT22;21057;51.024;7.540;2022-10-17T02:00:11;16.00;99.90
15455;DHT22;21057;51.024;7.540;2022-10-17T02:02:43;16.10;99.90
15455;DHT22;21057;51.024;7.540;2022-10-17T02:05:10;16.10;99.90
15455;DHT22;21057;51.024;7.540;2022-10-17T02:07:40;16.00;99.90
15455;DHT22;21057;51.024;7.540;2022-10-17T02:10:11;16.00;99.90
15455;DHT22;21057;51.024;7.540;2022-10-17T02:12:46;16.00;99.90
15455;DHT22;21057;51.024;7.540;2022-10-17T02:15:35;16.10;99.90
15455;DHT22;21057;51.024;7.540;2022-10-17T02:18:16;16.10;99.90
15455;DHT22;21057;51.024;7.540;2022-10-17T02:20:50;16.00;99.90
15455;DHT22;21057;51.024;7.540;2022-10-17T02:23:24;15.90;99.90
15455;DHT22;21057;51.024;7.540;2022-10-17T02:25:58;15.80;99.90
15455;DHT22;21057;51.024;7.540;2022-10-17T02:28:32;15.90;99.90
15455;DHT22;21057;51.024;7.540;2022-10-17T02:31:02;15.80;99.90
15455;DHT22;21057;51.024;7.540;2022-10-17T02:33:36;15.70;99.90
15455;DHT22;21057;51.024;7.540;2022-10-17T02:36:08;15.60;99.90
15455;DHT22;21057;51.024;7.540;2022-10-17T02:38:37;15.50;99.90
15455;DHT22;21057;51.024;7.540;2022-10-17T02:41:07;15.50;99.90
15455;DHT22;21057;51.024;7.540;2022-10-17T02:43:36;15.60;99.90
15455;DHT22;21057;51.024;7.540;2022-10-17T02:46:05;15.50;99.90
15455;DHT22;21057;51.024;7.540;2022-10-17T02:48:39;15.60;99.90
15455;DHT22;21057;51.024;7.540;2022-10-17T02:51:14;15.60;99.90
15455;DHT22;21057;51.024;7.540;2022-10-17T02:53:48;15.70;99.90
15455;DHT22;21057;51.024;7.540;2022-10-17T02:56:20;15.70;99.90
15455;DHT22;21057;51.024;7.540;2022-10-17T02:58:50;15.80;99.90
15455;DHT22;21057;51.024;7.540;2022-10-17T03:01:18;15.90;99.90
15455;DHT22;21057;51.024;7.540;2022-10-17T03:03:47;16.00;99.90
15455;DHT22;21057;51.024;7.540;2022-10-17T03:06:14;15.90;99.90
15455;DHT22;21057;51.024;7.540;2022-10-17T03:08:41;15.90;99.90
15455;DHT22;21057;51.024;7.540;2022-10-17T03:11:08;15.90;99.90
15455;DHT22;21057;51.024;7.540;2022-10-17T03:13:35;16.10;99.90
15455;DHT22;21057;51.024;7.540;2022-10-17T03:16:02;16.10;99.90
15455;DHT22;21057;51.024;7.540;2022-10-17T03:18:30;16.10;99.90
15455;DHT22;21057;51.024;7.540;2022-10-17T03:20:59;16.20;99.90
15455;DHT22;21057;51.024;7.540;2022-10-17T03:23:26;16.10;99.90
15455;DHT22;21057;51.024;7.540;2022-10-17T03:25:52;16.10;99.90
15455;DHT22;21057;51.024;7.540;2022-10-17T03:28:19;16.10;99.90
15455;DHT22;21057;51.024;7.540;2022-10-17T03:30:46;16.00;99.90
15455;DHT22;21057;51.024;7.540;2022-10-17T03:33:13;16.00;99.90
15455;DHT22;21057;51.024;7.540;2022-10-17T03:35:40;16.00;99.90
15455;DHT22;21057;51.024;7.540;2022-10-17T03:38:08;16.00;99.90
15455;DHT22;21057;51.024;7.540;2022-10-17T03:40:35;15.90;99.90
15455;DHT22;21057;51.024;7.540;2022-10-17T03:43:02;16.00;99.90
15455;DHT22;21057;51.024;7.540;2022-10-17T03:45:29;15.90;99.90
15455;DHT22;21057;51.024;7.540;2022-10-17T03:47:57;16.00;99.90
15455;DHT22;21057;51.024;7.540;2022-10-17T03:50:24;16.00;99.90
15455;DHT22;21057;51.024;7.540;2022-10-17T03:52:51;16.00;99.90
15455;DHT22;21057;51.024;7.540;2022-10-17T03:55:19;16.00;99.90
15455;DHT22;21057;51.024;7.540;2022-10-17T03:57:46;15.90;99.90
15455;DHT22;21057;51.024;7.540;2022-10-17T04:00:13;16.00;99.90
15455;DHT22;21057;51.024;7.540;2022-10-17T04:02:40;16.00;99.90
15455;DHT22;21057;51.024;7.540;2022-10-17T04:05:09;16.00;99.90
15455;DHT22;21057;51.024;7.540;2022-10-17T04:07:36;16.00;99.90
15455;DHT22;21057;51.024;7.540;2022-10-17T04:10:03;15.90;99.90
15455;DHT22;21057;51.024;7.540;2022-10-17T04:12:32;16.00;99.90
15455;DHT22;21057;51.024;7.540;2022-10-17T04:14:59;16.00;99.90
15455;DHT22;21057;51.024;7.540;2022-10-17T04:17:25;16.00;99.90
15455;DHT22;21057;51.024;7.540;2022-10-17T04:19:52;16.10;99.90
15455;DHT22;21057;51.024;7.540;2022-10-17T04:22:19;16.00;99.90
15455;DHT22;21057;51.024;7.540;2022-10-17T04:24:46;16.00;99.90
15455;DHT22;21057;51.024;7.540;2022-10-17T04:27:13;16.00;99.90
15455;DHT22;21057;51.024;7.540;2022-10-17T04:29:41;16.00;99.90
15455;DHT22;21057;51.024;7.540;2022-10-17T04:32:08;16.10;99.90
15455;DHT22;21057;51.024;7.540;2022-10-17T04:34:35;16.10;99.90
15455;DHT22;21057;51.024;7.540;2022-10-17T04:37:02;16.10;99.90
15455;DHT22;21057;51.024;7.540;2022-10-17T04:39:29;16.10;99.90
15455;DHT22;21057;51.024;7.540;2022-10-17T04:41:56;16.10;99.90
15455;DHT22;21057;51.024;7.540;2022-10-17T04:44:22;16.00;99.90
15455;DHT22;21057;51.024;7.540;2022-10-17T04:46:51;16.10;99.90
15455;DHT22;21057;51.024;7.540;2022-10-17T04:49:18;16.10;99.90
15455;DHT22;21057;51.024;7.540;2022-10-17T04:51:44;16.00;99.90
15455;DHT22;21057;51.024;7.540;2022-10-17T04:54:11;16.00;99.90
15455;DHT22;21057;51.024;7.540;2022-10-17T04:56:38;16.10;99.90
15455;DHT22;21057;51.024;7.540;2022-10-17T04:59:05;16.10;99.90
15455;DHT22;21057;51.024;7.540;2022-10-17T05:01:32;16.10;99.90
15455;DHT22;21057;51.024;7.540;2022-10-17T05:04:00;16.10;99.90
15455;DHT22;21057;51.024;7.540;2022-10-17T05:06:27;16.10;99.90
15455;DHT22;21057;51.024;7.540;2022-10-17T05:08:54;16.20;99.90
15455;DHT22;21057;51.024;7.540;2022-10-17T05:11:23;16.20;99.90
15455;DHT22;21057;51.024;7.540;2022-10-17T05:13:51;16.00;99.90
15455;DHT22;21057;51.024;7.540;2022-10-17T05:16:18;16.00;99.90
15455;DHT22;21057;51.024;7.540;2022-10-17T05:18:47;15.90;99.90
15455;DHT22;21057;51.024;7.540;2022-10-17T05:21:16;16.00;99.90
15455;DHT22;21057;51.024;7.540;2022-10-17T05:23:44;15.90;99.90
15455;DHT22;21057;51.024;7.540;2022-10-17T05:26:11;16.00;99.90
15455;DHT22;21057;51.024;7.540;2022-10-17T05:28:38;15.90;99.90
15455;DHT22;21057;51.024;7.540;2022-10-17T05:31:06;16.00;99.90
15455;DHT22;21057;51.024;7.540;2022-10-17T05:33:34;15.90;99.90
15455;DHT22;21057;51.024;7.540;2022-10-17T05:36:01;16.00;99.90
15455;DHT22;21057;51.024;7.540;2022-10-17T05:38:29;16.00;99.90
15455;DHT22;21057;51.024;7.540;2022-10-17T05:40:56;16.00;99.90
15455;DHT22;21057;51.024;7.540;2022-10-17T05:43:24;16.00;99.90
15455;DHT22;21057;51.024;7.540;2022-10-17T05:45:52;15.90;99.90
15455;DHT22;21057;51.024;7.540;2022-10-17T05:48:19;15.80;99.90
15455;DHT22;21057;51.024;7.540;2022-10-17T05:50:46;15.90;99.90
15455;DHT22;21057;51.024;7.540;2022-10-17T05:53:13;15.90;99.90
15455;DHT22;21057;51.024;7.540;2022-10-17T05:55:41;15.80;99.90
15455;DHT22;21057;51.024;7.540;2022-10-17T05:58:08;15.70;99.90
15455;DHT22;21057;51.024;7.540;2022-10-17T06:00:35;15.70;99.90
15455;DHT22;21057;51.024;7.540;2022-10-17T06:03:02;15.50;99.90
15455;DHT22;21057;51.024;7.540;2022-10-17T06:05:29;15.50;99.90
15455;DHT22;21057;51.024;7.540;2022-10-17T06:07:58;15.60;99.90
15455;DHT22;21057;51.024;7.540;2022-10-17T06:10:25;15.70;99.90
15455;DHT22;21057;51.024;7.540;2022-10-17T06:12:53;15.80;99.90
15455;DHT22;21057;51.024;7.540;2022-10-17T06:15:21;15.90;99.90
15455;DHT22;21057;51.024;7.540;2022-10-17T06:17:48;16.00;99.90
15455;DHT22;21057;51.024;7.540;2022-10-17T06:20:15;16.10;99.90
15455;DHT22;21057;51.024;7.540;2022-10-17T06:22:42;16.20;99.90
15455;DHT22;21057;51.024;7.540;2022-10-17T06:25:09;16.20;99.90
15455;DHT22;21057;51.024;7.540;2022-10-17T06:27:35;16.30;99.90
15455;DHT22;21057;51.024;7.540;2022-10-17T06:30:04;16.10;99.90
15455;DHT22;21057;51.024;7.540;2022-10-17T06:32:31;16.20;99.90
15455;DHT22;21057;51.024;7.540;2022-10-17T06:34:59;16.10;99.90
15455;DHT22;21057;51.024;7.540;2022-10-17T06:37:29;16.00;99.90
15455;DHT22;21057;51.024;7.540;2022-10-17T06:39:58;16.10;99.90
15455;DHT22;21057;51.024;7.540;2022-10-17T06:42:29;16.20;99.90
15455;DHT22;21057;51.024;7.540;2022-10-17T06:44:56;16.20;99.90
15455;DHT22;21057;51.024;7.540;2022-10-17T06:47:25;16.10;99.90
15455;DHT22;21057;51.024;7.540;2022-10-17T06:49:52;16.30;99.90
15455;DHT22;21057;51.024;7.540;2022-10-17T06:52:18;16.30;99.90
15455;DHT22;21057;51.024;7.540;2022-10-17T06:54:45;16.20;99.90
15455;DHT22;21057;51.024;7.540;2022-10-17T06:57:13;16.20;99.90
15455;DHT22;21057;51.024;7.540;2022-10-17T06:59:40;16.30;99.90
15455;DHT22;21057;51.024;7.540;2022-10-17T07:02:08;16.40;99.90
15455;DHT22;21057;51.024;7.540;2022-10-17T07:04:36;16.50;99.90
15455;DHT22;21057;51.024;7.540;2022-10-17T07:07:04;16.50;99.90
15455;DHT22;21057;51.024;7.540;2022-10-17T07:09:31;16.50;99.90
15455;DHT22;21057;51.024;7.540;2022-10-17T07:11:58;16.50;99.90
15455;DHT22;21057;51.024;7.540;2022-10-17T07:14:25;16.60;99.90
15455;DHT22;21057;51.024;7.540;2022-10-17T07:16:56;16.60;99.90
15455;DHT22;21057;51.024;7.540;2022-10-17T07:19:23;16.60;99.90
15455;DHT22;21057;51.024;7.540;2022-10-17T07:21:51;16.80;99.90
15455;DHT22;21057;51.024;7.540;2022-10-17T07:24:18;16.90;99.90
15455;DHT22;21057;51.024;7.540;2022-10-17T07:26:45;17.00;99.90
15455;DHT22;21057;51.024;7.540;2022-10-17T07:29:12;17.10;99.90
15455;DHT22;21057;51.024;7.540;2022-10-17T07:31:39;17.10;99.90
15455;DHT22;21057;51.024;7.540;2022-10-17T07:34:06;17.30;99.90
15455;DHT22;21057;51.024;7.540;2022-10-17T07:36:32;17.40;99.90
15455;DHT22;21057;51.024;7.540;2022-10-17T07:39:01;17.60;99.90
15455;DHT22;21057;51.024;7.540;2022-10-17T07:41:27;17.70;99.90
15455;DHT22;21057;51.024;7.540;2022-10-17T07:43:55;17.70;99.90
15455;DHT22;21057;51.024;7.540;2022-10-17T07:46:21;17.90;99.90
15455;DHT22;21057;51.024;7.540;2022-10-17T07:48:48;17.90;99.90
15455;DHT22;21057;51.024;7.540;2022-10-17T07:51:15;17.90;99.90
15455;DHT22;21057;51.024;7.540;2022-10-17T07:53:43;18.00;99.90
15455;DHT22;21057;51.024;7.540;2022-10-17T07:56:11;18.10;99.90
15455;DHT22;21057;51.024;7.540;2022-10-17T07:58:38;18.10;99.90
15455;DHT22;21057;51.024;7.540;2022-10-17T08:01:06;18.10;99.90
15455;DHT22;21057;51.024;7.540;2022-10-17T08:03:35;18.10;99.90
15455;DHT22;21057;51.024;7.540;2022-10-17T08:06:03;18.20;99.90
15455;DHT22;21057;51.024;7.540;2022-10-17T08:08:32;18.20;99.90
15455;DHT22;21057;51.024;7.540;2022-10-17T08:11:01;18.30;99.90
15455;DHT22;21057;51.024;7.540;2022-10-17T08:13:30;18.20;99.90
15455;DHT22;21057;51.024;7.540;2022-10-17T08:15:59;18.20;99.90
15455;DHT22;21057;51.024;7.540;2022-10-17T08:18:26;18.30;99.90
15455;DHT22;21057;51.024;7.540;2022-10-17T08:20:53;18.40;99.90
15455;DHT22;21057;51.024;7.540;2022-10-17T08:23:20;18.50;99.90
15455;DHT22;21057;51.024;7.540;2022-10-17T08:25:46;18.40;99.90
15455;DHT22;21057;51.024;7.540;2022-10-17T08:28:13;18.50;99.90
15455;DHT22;21057;51.024;7.540;2022-10-17T08:30:41;18.60;99.90
15455;DHT22;21057;51.024;7.540;2022-10-17T08:33:08;18.50;99.90
15455;DHT22;21057;51.024;7.540;2022-10-17T08:35:35;18.50;99.90
15455;DHT22;21057;51.024;7.540;2022-10-17T08:38:02;18.50;99.90
15455;DHT22;21057;51.024;7.540;2022-10-17T08:40:30;18.50;99.90
15455;DHT22;21057;51.024;7.540;2022-10-17T08:43:31;18.90;99.90
15455;DHT22;21057;51.024;7.540;2022-10-17T08:46:02;19.10;99.90
15455;DHT22;21057;51.024;7.540;2022-10-17T08:48:33;19.00;99.90
15455;DHT22;21057;51.024;7.540;2022-10-17T08:51:06;19.10;99.90
15455;DHT22;21057;51.024;7.540;2022-10-17T08:53:39;19.20;99.90
15455;DHT22;21057;51.024;7.540;2022-10-17T08:56:17;19.20;99.90
15455;DHT22;21057;51.024;7.540;2022-10-17T08:58:44;19.10;99.90
15455;DHT22;21057;51.024;7.540;2022-10-17T09:01:32;19.10;99.90
15455;DHT22;21057;51.024;7.540;2022-10-17T09:04:16;19.10;99.90
15455;DHT22;21057;51.024;7.540;2022-10-17T09:06:50;19.20;99.90
15455;DHT22;21057;51.024;7.540;2022-10-17T09:09:29;19.30;99.90
15455;DHT22;21057;51.024;7.540;2022-10-17T09:12:10;19.40;99.90
15455;DHT22;21057;51.024;7.540;2022-10-17T09:14:54;19.60;99.90
15455;DHT22;21057;51.024;7.540;2022-10-17T09:17:31;19.60;99.90
15455;DHT22;21057;51.024;7.540;2022-10-17T09:20:03;19.60;99.90
15455;DHT22;21057;51.024;7.540;2022-10-17T09:22:36;19.80;99.90
15455;DHT22;21057;51.024;7.540;2022-10-17T09:25:09;19.80;99.90
15455;DHT22;21057;51.024;7.540;2022-10-17T09:27:40;19.80;99.90
15455;DHT22;21057;51.024;7.540;2022-10-17T09:33:14;20.40;99.90
15455;DHT22;21057;51.024;7.540;2022-10-17T09:35:42;21.00;99.90
15455;DHT22;21057;51.024;7.540;2022-10-17T09:38:15;21.60;99.90
15455;DHT22;21057;51.024;7.540;2022-10-17T09:40:43;21.90;99.90
15455;DHT22;21057;51.024;7.540;2022-10-17T09:43:12;22.30;99.90
15455;DHT22;21057;51.024;7.540;2022-10-17T09:45:44;22.60;99.90
15455;DHT22;21057;51.024;7.540;2022-10-17T09:48:21;22.80;99.90
15455;DHT22;21057;51.024;7.540;2022-10-17T09:50:48;23.60;99.90
15455;DHT22;21057;51.024;7.540;2022-10-17T09:53:19;24.10;99.90
15455;DHT22;21057;51.024;7.540;2022-10-17T09:55:50;24.50;99.90
15455;DHT22;21057;51.024;7.540;2022-10-17T09:58:20;24.80;99.90
15455;DHT22;21057;51.024;7.540;2022-10-17T10:00:48;25.40;99.90
15455;DHT22;21057;51.024;7.540;2022-10-17T10:03:18;26.00;99.90
15455;DHT22;21057;51.024;7.540;2022-10-17T10:06:00;25.80;99.90
15455;DHT22;21057;51.024;7.540;2022-10-17T10:08:29;25.60;99.90
15455;DHT22;21057;51.024;7.540;2022-10-17T10:10:58;25.80;99.90
15455;DHT22;21057;51.024;7.540;2022-10-17T10:13:28;25.80;99.90
15455;DHT22;21057;51.024;7.540;2022-10-17T10:16:13;26.00;99.90
15455;DHT22;21057;51.024;7.540;2022-10-17T10:18:41;26.00;99.90
15455;DHT22;21057;51.024;7.540;2022-10-17T10:21:10;25.70;99.90
15455;DHT22;21057;51.024;7.540;2022-10-17T10:23:40;25.80;99.90
15455;DHT22;21057;51.024;7.540;2022-10-17T10:26:18;25.50;99.90
15455;DHT22;21057;51.024;7.540;2022-10-17T10:28:52;25.40;99.90
15455;DHT22;21057;51.024;7.540;2022-10-17T10:31:26;25.20;99.90
15455;DHT22;21057;51.024;7.540;2022-10-17T10:33:58;25.00;99.90
15455;DHT22;21057;51.024;7.540;2022-10-17T10:36:51;24.80;99.90
15455;DHT22;21057;51.024;7.540;2022-10-17T10:39:40;24.70;99.90
15455;DHT22;21057;51.024;7.540;2022-10-17T10:42:17;24.20;99.90
15455;DHT22;21057;51.024;7.540;2022-10-17T10:44:46;24.10;99.90
15455;DHT22;21057;51.024;7.540;2022-10-17T10:47:23;23.70;99.90
15455;DHT22;21057;51.024;7.540;2022-10-17T10:50:06;23.60;99.90
15455;DHT22;21057;51.024;7.540;2022-10-17T10:52:39;23.40;99.90
15455;DHT22;21057;51.024;7.540;2022-10-17T10:55:17;23.10;99.90
15455;DHT22;21057;51.024;7.540;2022-10-17T10:57:49;23.30;99.90
15455;DHT22;21057;51.024;7.540;2022-10-17T11:00:20;23.40;99.90
15455;DHT22;21057;51.024;7.540;2022-10-17T11:02:53;23.40;99.90
15455;DHT22;21057;51.024;7.540;2022-10-17T11:05:35;23.80;99.90
15455;DHT22;21057;51.024;7.540;2022-10-17T11:08:08;24.60;99.90
15455;DHT22;21057;51.024;7.540;2022-10-17T11:10:40;24.80;99.90
15455;DHT22;21057;51.024;7.540;2022-10-17T11:13:12;25.10;99.90
15455;DHT22;21057;51.024;7.540;2022-10-17T11:15:45;24.90;99.90
15455;DHT22;21057;51.024;7.540;2022-10-17T11:18:21;24.80;99.90
15455;DHT22;21057;51.024;7.540;2022-10-17T11:20:54;24.30;99.90
15455;DHT22;21057;51.024;7.540;2022-10-17T11:23:27;24.10;99.90
15455;DHT22;21057;51.024;7.540;2022-10-17T11:26:00;24.10;99.90
15455;DHT22;21057;51.024;7.540;2022-10-17T11:28:28;24.10;99.90
15455;DHT22;21057;51.024;7.540;2022-10-17T11:30:59;24.10;99.90
15455;DHT22;21057;51.024;7.540;2022-10-17T11:33:31;24.10;99.90
15455;DHT22;21057;51.024;7.540;2022-10-17T11:36:03;24.00;99.90
15455;DHT22;21057;51.024;7.540;2022-10-17T11:38:45;23.70;99.90
15455;DHT22;21057;51.024;7.540;2022-10-17T11:41:17;23.50;99.90
15455;DHT22;21057;51.024;7.540;2022-10-17T11:43:51;23.50;99.90
15455;DHT22;21057;51.024;7.540;2022-10-17T11:46:21;23.40;99.90
15455;DHT22;21057;51.024;7.540;2022-10-17T11:49:00;23.30;99.90
15455;DHT22;21057;51.024;7.540;2022-10-17T11:51:35;23.30;99.90
15455;DHT22;21057;51.024;7.540;2022-10-17T11:54:09;23.30;99.90
15455;DHT22;21057;51.024;7.540;2022-10-17T11:56:41;23.10;99.90
15455;DHT22;21057;51.024;7.540;2022-10-17T11:59:26;23.00;99.90
15455;DHT22;21057;51.024;7.540;2022-10-17T12:02:03;23.00;99.90
15455;DHT22;21057;51.024;7.540;2022-10-17T12:04:44;22.90;99.90
15455;DHT22;21057;51.024;7.540;2022-10-17T12:07:21;22.90;99.90
15455;DHT22;21057;51.024;7.540;2022-10-17T12:09:55;22.90;99.90
15455;DHT22;21057;51.024;7.540;2022-10-17T12:12:26;22.80;99.90
15455;DHT22;21057;51.024;7.540;2022-10-17T12:14:54;22.70;99.90
15455;DHT22;21057;51.024;7.540;2022-10-17T12:17:43;22.60;99.90
15455;DHT22;21057;51.024;7.540;2022-10-17T12:20:32;22.50;99.90
15455;DHT22;21057;51.024;7.540;2022-10-17T12:25:50;22.60;99.90
15455;DHT22;21057;51.024;7.540;2022-10-17T12:28:25;22.80;99.90
15455;DHT22;21057;51.024;7.540;2022-10-17T12:30:57;22.80;99.90
15455;DHT22;21057;51.024;7.540;2022-10-17T12:33:30;22.80;99.90
15455;DHT22;21057;51.024;7.540;2022-10-17T12:42:00;22.80;99.90
15455;DHT22;21057;51.024;7.540;2022-10-17T12:44:35;22.70;99.90
15455;DHT22;21057;51.024;7.540;2022-10-17T12:47:28;22.60;99.90
15455;DHT22;21057;51.024;7.540;2022-10-17T12:50:02;22.60;99.90
15455;DHT22;21057;51.024;7.540;2022-10-17T12:52:53;22.50;99.90
15455;DHT22;21057;51.024;7.540;2022-10-17T12:55:23;22.60;99.90
15455;DHT22;21057;51.024;7.540;2022-10-17T12:57:55;22.60;99.90
15455;DHT22;21057;51.024;7.540;2022-10-17T13:00:31;22.70;99.90
15455;DHT22;21057;51.024;7.540;2022-10-17T13:03:10;22.80;99.90
15455;DHT22;21057;51.024;7.540;2022-10-17T13:05:44;22.90;99.90
15455;DHT22;21057;51.024;7.540;2022-10-17T13:08:15;23.10;99.90
15455;DHT22;21057;51.024;7.540;2022-10-17T13:10:45;23.00;99.90
15455;DHT22;21057;51.024;7.540;2022-10-17T13:13:16;23.10;99.90
15455;DHT22;21057;51.024;7.540;2022-10-17T13:15:48;23.20;99.90
15455;DHT22;21057;51.024;7.540;2022-10-17T13:18:18;23.40;99.90
15455;DHT22;21057;51.024;7.540;2022-10-17T13:20:54;23.30;99.90
15455;DHT22;21057;51.024;7.540;2022-10-17T13:23:22;23.40;99.90
15455;DHT22;21057;51.024;7.540;2022-10-17T13:26:02;23.20;99.90
15455;DHT22;21057;51.024;7.540;2022-10-17T13:28:30;23.10;99.90
15455;DHT22;21057;51.024;7.540;2022-10-17T13:30:57;22.90;99.90
15455;DHT22;21057;51.024;7.540;2022-10-17T13:33:34;22.90;99.90
15455;DHT22;21057;51.024;7.540;2022-10-17T13:36:06;22.70;99.90
15455;DHT22;21057;51.024;7.540;2022-10-17T13:38:34;22.60;99.90
15455;DHT22;21057;51.024;7.540;2022-10-17T13:41:02;22.70;99.90
15455;DHT22;21057;51.024;7.540;2022-10-17T13:43:30;22.50;99.90
15455;DHT22;21057;51.024;7.540;2022-10-17T13:46:00;22.30;99.90
15455;DHT22;21057;51.024;7.540;2022-10-17T13:48:31;22.40;99.90
15455;DHT22;21057;51.024;7.540;2022-10-17T13:51:01;22.30;99.90
15455;DHT22;21057;51.024;7.540;2022-10-17T13:53:30;22.20;99.90
15455;DHT22;21057;51.024;7.540;2022-10-17T13:55:59;22.10;99.90
15455;DHT22;21057;51.024;7.540;2022-10-17T13:58:31;22.00;99.90
15455;DHT22;21057;51.024;7.540;2022-10-17T14:01:08;22.00;99.90
15455;DHT22;21057;51.024;7.540;2022-10-17T14:03:35;21.90;99.90
15455;DHT22;21057;51.024;7.540;2022-10-17T14:06:12;21.80;99.90
15455;DHT22;21057;51.024;7.540;2022-10-17T14:08:53;21.90;99.90
15455;DHT22;21057;51.024;7.540;2022-10-17T14:11:29;21.70;99.90
15455;DHT22;21057;51.024;7.540;2022-10-17T14:13:58;21.70;99.90
15455;DHT22;21057;51.024;7.540;2022-10-17T14:16:26;21.80;99.90
15455;DHT22;21057;51.024;7.540;2022-10-17T14:19:00;21.70;99.90
15455;DHT22;21057;51.024;7.540;2022-10-17T14:21:26;21.80;99.90
15455;DHT22;21057;51.024;7.540;2022-10-17T14:24:13;21.70;99.90
15455;DHT22;21057;51.024;7.540;2022-10-17T14:26:48;21.60;99.90
15455;DHT22;21057;51.024;7.540;2022-10-17T14:29:23;21.70;99.90
15455;DHT22;21057;51.024;7.540;2022-10-17T14:32:00;21.70;99.90
15455;DHT22;21057;51.024;7.540;2022-10-17T14:34:31;21.70;99.90
15455;DHT22;21057;51.024;7.540;2022-10-17T14:36:58;21.80;99.90
15455;DHT22;21057;51.024;7.540;2022-10-17T14:39:26;21.80;99.90
15455;DHT22;21057;51.024;7.540;2022-10-17T14:41:53;21.90;99.90
15455;DHT22;21057;51.024;7.540;2022-10-17T14:44:29;22.00;99.90
15455;DHT22;21057;51.024;7.540;2022-10-17T14:46:58;21.90;99.90
15455;DHT22;21057;51.024;7.540;2022-10-17T14:49:34;21.90;99.90
15455;DHT22;21057;51.024;7.540;2022-10-17T14:52:25;21.80;99.90
15455;DHT22;21057;51.024;7.540;2022-10-17T14:54:52;21.80;99.90
15455;DHT22;21057;51.024;7.540;2022-10-17T14:57:23;21.80;99.90
15455;DHT22;21057;51.024;7.540;2022-10-17T14:59:53;21.80;99.90
15455;DHT22;21057;51.024;7.540;2022-10-17T15:02:20;21.80;99.90
15455;DHT22;21057;51.024;7.540;2022-10-17T15:04:47;21.80;99.90
15455;DHT22;21057;51.024;7.540;2022-10-17T15:07:15;21.80;99.90
15455;DHT22;21057;51.024;7.540;2022-10-17T15:09:43;21.60;99.90
15455;DHT22;21057;51.024;7.540;2022-10-17T15:12:13;21.60;99.90
15455;DHT22;21057;51.024;7.540;2022-10-17T15:14:41;21.60;99.90
15455;DHT22;21057;51.024;7.540;2022-10-17T15:17:12;21.60;99.90
15455;DHT22;21057;51.024;7.540;2022-10-17T15:19:40;21.50;99.90
15455;DHT22;21057;51.024;7.540;2022-10-17T15:22:07;21.50;99.90
15455;DHT22;21057;51.024;7.540;2022-10-17T15:24:34;21.50;99.90
15455;DHT22;21057;51.024;7.540;2022-10-17T15:27:01;21.40;99.90
15455;DHT22;21057;51.024;7.540;2022-10-17T15:29:28;21.30;99.90
15455;DHT22;21057;51.024;7.540;2022-10-17T15:31:55;21.30;99.90
15455;DHT22;21057;51.024;7.540;2022-10-17T15:34:23;21.30;99.90
15455;DHT22;21057;51.024;7.540;2022-10-17T15:36:51;21.30;99.90
15455;DHT22;21057;51.024;7.540;2022-10-17T15:39:18;21.20;99.90
15455;DHT22;21057;51.024;7.540;2022-10-17T15:41:45;21.20;99.90
15455;DHT22;21057;51.024;7.540;2022-10-17T15:44:14;21.10;99.90
15455;DHT22;21057;51.024;7.540;2022-10-17T15:46:41;21.00;99.90
15455;DHT22;21057;51.024;7.540;2022-10-17T15:49:11;21.00;99.90
15455;DHT22;21057;51.024;7.540;2022-10-17T15:51:42;21.00;99.90
15455;DHT22;21057;51.024;7.540;2022-10-17T15:54:09;20.90;99.90
15455;DHT22;21057;51.024;7.540;2022-10-17T15:56:38;20.90;99.90
15455;DHT22;21057;51.024;7.540;2022-10-17T15:59:09;21.00;99.90
15455;DHT22;21057;51.024;7.540;2022-10-17T16:01:38;20.80;99.90
15455;DHT22;21057;51.024;7.540;2022-10-17T16:04:05;20.70;99.90
15455;DHT22;21057;51.024;7.540;2022-10-17T16:06:32;20.70;99.90